createdAt,value
2018-01-28T00:02:00.472Z,3.93
2018-01-28T00:04:28.842Z,4.30
2018-01-28T00:06:57.233Z,4.67
2018-01-28T00:09:26.403Z,3.60
2018-01-28T00:11:54.875Z,4.97
2018-01-28T00:14:23.219Z,6.93
2018-01-28T00:16:51.854Z,8.50
2018-01-28T00:19:20.918Z,6.40
2018-01-28T00:21:49.222Z,5.60
2018-01-28T00:24:17.513Z,7.03
2018-01-28T00:26:45.801Z,4.50
2018-01-28T00:29:14.106Z,4.07
2018-01-28T00:31:42.402Z,3.50
2018-01-28T00:34:10.700Z,5.30
2018-01-28T00:36:39.226Z,6.50
2018-01-28T00:39:07.842Z,6.47
2018-01-28T00:41:36.148Z,4.67
2018-01-28T00:44:04.429Z,6.00
2018-01-28T00:46:32.718Z,3.90
2018-01-28T00:49:01.026Z,5.67
2018-01-28T00:51:29.398Z,6.50
2018-01-28T00:53:57.711Z,4.47
2018-01-28T00:56:26.354Z,5.30
2018-01-28T00:58:55.433Z,5.53
2018-01-28T01:01:23.813Z,5.73
2018-01-28T01:03:52.310Z,8.53
2018-01-28T01:06:20.673Z,8.90
2018-01-28T01:08:48.994Z,8.50
2018-01-28T01:11:17.354Z,5.57
2018-01-28T01:13:45.675Z,4.40
2018-01-28T01:16:13.953Z,6.63
2018-01-28T01:18:42.277Z,4.63
2018-01-28T01:21:11.334Z,5.37
2018-01-28T01:23:40.078Z,7.10
2018-01-28T01:26:08.378Z,3.60
2018-01-28T01:28:37.438Z,5.97
2018-01-28T01:31:05.755Z,6.07
2018-01-28T01:33:34.038Z,4.40
2018-01-28T01:36:02.638Z,6.63
2018-01-28T01:38:30.929Z,5.60
2018-01-28T01:40:59.220Z,2.40
2018-01-28T01:43:27.528Z,5.77
2018-01-28T01:45:55.818Z,3.97
2018-01-28T01:48:24.964Z,4.80
2018-01-28T01:50:53.334Z,4.80
2018-01-28T01:53:21.705Z,4.47
2018-01-28T01:55:50.067Z,3.77
2018-01-28T01:58:18.455Z,3.90
2018-01-28T02:00:46.817Z,2.70
2018-01-28T02:03:15.187Z,2.67
2018-01-28T02:05:43.520Z,3.47
2018-01-28T02:08:11.930Z,2.83
2018-01-28T02:10:40.327Z,3.10
2018-01-28T02:13:08.627Z,4.83
2018-01-28T02:15:36.938Z,5.27
2018-01-28T02:18:05.999Z,3.20
2018-01-28T02:20:34.708Z,3.67
2018-01-28T02:23:03.038Z,4.90
2018-01-28T02:25:32.083Z,3.10
2018-01-28T02:28:00.370Z,2.73
2018-01-28T02:30:28.704Z,3.10
2018-01-28T02:32:57.173Z,4.00
2018-01-28T02:35:25.480Z,2.80
2018-01-28T02:37:53.763Z,2.53
2018-01-28T02:40:22.058Z,2.93
2018-01-28T02:42:50.346Z,3.13
2018-01-28T02:45:18.645Z,3.00
2018-01-28T02:47:46.946Z,2.30
2018-01-28T02:50:15.550Z,2.30
2018-01-28T02:52:43.837Z,1.90
2018-01-28T02:55:12.926Z,1.67
2018-01-28T02:57:41.283Z,14.70
2018-01-28T03:00:09.616Z,1.97
2018-01-28T03:02:38.276Z,2.13
2018-01-28T03:05:07.509Z,1.50
2018-01-28T03:07:35.813Z,1.47
2018-01-28T03:10:04.892Z,1.10
2018-01-28T03:12:33.213Z,1.23
2018-01-28T03:15:01.807Z,1.67
2018-01-28T03:17:30.102Z,1.03
2018-01-28T03:19:58.390Z,0.90
2018-01-28T03:22:26.691Z,0.80
2018-01-28T03:24:54.993Z,1.07
2018-01-28T03:27:24.103Z,0.80
2018-01-28T03:29:53.169Z,0.60
2018-01-28T03:32:21.462Z,0.60
2018-01-28T03:34:49.785Z,1.70
2018-01-28T03:37:18.842Z,0.83
2018-01-28T03:39:47.143Z,0.60
2018-01-28T03:42:15.473Z,1.17
2018-01-28T03:44:44.088Z,0.80
2018-01-28T03:47:13.151Z,1.00
2018-01-28T03:49:41.443Z,0.83
2018-01-28T03:52:09.789Z,0.83
2018-01-28T03:54:38.098Z,0.73
2018-01-28T03:57:06.491Z,0.60
2018-01-28T03:59:34.882Z,0.60
2018-01-28T04:02:03.213Z,0.80
2018-01-28T04:04:31.518Z,0.63
2018-01-28T04:07:00.906Z,0.63
2018-01-28T04:09:29.180Z,0.60
2018-01-28T04:11:57.487Z,0.70
2018-01-28T04:14:25.793Z,1.30
2018-01-28T04:16:54.070Z,0.83
2018-01-28T04:19:23.568Z,1.13
2018-01-28T04:21:51.851Z,0.50
2018-01-28T04:24:20.142Z,0.60
2018-01-28T04:26:48.430Z,0.60
2018-01-28T04:29:16.738Z,3.07
2018-01-28T04:31:45.249Z,0.90
2018-01-28T04:34:13.545Z,0.77
2018-01-28T04:36:41.837Z,0.80
2018-01-28T04:39:10.162Z,0.80
2018-01-28T04:41:38.566Z,0.70
2018-01-28T04:44:06.991Z,0.77
2018-01-28T04:46:35.308Z,1.03
2018-01-28T04:49:04.462Z,1.63
2018-01-28T04:51:32.762Z,0.70
2018-01-28T04:54:01.088Z,3.33
2018-01-28T04:56:29.414Z,0.73
2018-01-28T04:58:57.726Z,0.80
2018-01-28T05:01:26.016Z,1.83
2018-01-28T05:03:54.325Z,1.47
2018-01-28T05:06:22.946Z,1.03
2018-01-28T05:08:51.243Z,1.20
2018-01-28T05:11:19.533Z,0.73
2018-01-28T05:13:47.823Z,0.83
2018-01-28T05:16:16.123Z,0.60
2018-01-28T05:18:45.224Z,97.03
2018-01-28T05:21:14.283Z,0.67
2018-01-28T05:23:42.601Z,1.03
2018-01-28T05:26:10.908Z,0.80
2018-01-28T05:28:39.562Z,0.70
2018-01-28T05:31:07.854Z,0.97
2018-01-28T05:33:36.178Z,1.10
2018-01-28T05:36:04.477Z,2.27
2018-01-28T05:38:32.813Z,3.70
2018-01-28T05:41:01.408Z,0.90
2018-01-28T05:43:29.690Z,0.70
2018-01-28T05:45:58.067Z,0.73
2018-01-28T05:48:26.391Z,0.80
2018-01-28T05:50:54.674Z,0.70
2018-01-28T05:53:23.280Z,0.73
2018-01-28T05:55:51.619Z,1.33
2018-01-28T05:58:19.939Z,0.80
2018-01-28T06:00:49.002Z,0.70
2018-01-28T06:03:17.305Z,0.73
2018-01-28T06:05:45.676Z,1.10
2018-01-28T06:08:13.990Z,0.60
2018-01-28T06:10:42.318Z,0.70
2018-01-28T06:13:10.671Z,0.60
2018-01-28T06:15:38.964Z,0.50
2018-01-28T06:18:08.057Z,0.57
2018-01-28T06:20:36.386Z,0.50
2018-01-28T06:23:05.003Z,0.60
2018-01-28T06:25:33.317Z,0.50
2018-01-28T06:28:01.607Z,0.57
2018-01-28T06:30:29.925Z,0.60
2018-01-28T06:32:58.218Z,1.80
2018-01-28T06:35:26.578Z,0.70
2018-01-28T06:37:54.941Z,2.93
2018-01-28T06:40:23.191Z,1.83
2018-01-28T06:42:51.496Z,1.80
2018-01-28T06:45:20.551Z,3.60
2018-01-28T06:47:48.933Z,1.33
2018-01-28T06:50:17.265Z,2.57
2018-01-28T06:52:45.550Z,2.13
2018-01-28T06:55:13.879Z,0.93
2018-01-28T06:57:42.254Z,0.77
2018-01-28T07:00:11.684Z,0.63
2018-01-28T07:02:40.102Z,0.70
2018-01-28T07:05:08.399Z,1.00
2018-01-28T07:07:36.716Z,0.90
2018-01-28T07:10:05.143Z,1.30
2018-01-28T07:12:34.294Z,1.13
2018-01-28T07:15:02.592Z,2.23
2018-01-28T07:17:30.904Z,2.13
2018-01-28T07:19:59.304Z,2.70
2018-01-28T07:22:27.938Z,3.47
2018-01-28T07:24:56.342Z,1.63
2018-01-28T07:27:24.630Z,3.13
2018-01-28T07:29:52.930Z,3.57
2018-01-28T07:32:21.279Z,1.77
2018-01-28T07:34:50.471Z,2.97
2018-01-28T07:37:18.789Z,2.87
2018-01-28T07:39:47.854Z,2.07
2018-01-28T07:42:16.160Z,3.87
2018-01-28T07:44:44.958Z,4.97
2018-01-28T07:47:13.279Z,23.47
2018-01-28T07:49:44.112Z,6.77
2018-01-28T07:52:12.605Z,8.30
2018-01-28T07:54:41.726Z,6.37
2018-01-28T07:57:10.879Z,4.50
2018-01-28T07:59:39.231Z,4.37
2018-01-28T08:02:08.887Z,7.33
2018-01-28T08:04:37.420Z,9.50
2018-01-28T08:07:05.859Z,5.30
2018-01-28T08:09:34.329Z,7.27
2018-01-28T08:12:10.229Z,4.03
2018-01-28T08:14:38.651Z,7.40
2018-01-28T08:17:07.034Z,9.93
2018-01-28T08:19:35.382Z,4.00
2018-01-28T08:22:04.484Z,5.60
2018-01-28T08:24:33.753Z,24.77
2018-01-28T08:27:06.609Z,16.20
2018-01-28T08:29:38.987Z,7.10
2018-01-28T08:32:07.328Z,4.97
2018-01-28T08:34:35.651Z,6.00
2018-01-28T08:37:04.262Z,7.67
2018-01-28T08:39:32.667Z,7.67
2018-01-28T08:42:01.006Z,3.67
2018-01-28T08:44:29.676Z,4.90
2018-01-28T08:46:58.021Z,6.53
2018-01-28T08:49:26.412Z,5.23
2018-01-28T08:51:54.897Z,9.60
2018-01-28T08:54:23.234Z,8.40
2018-01-28T08:56:51.578Z,10.30
2018-01-28T08:59:20.255Z,8.17
2018-01-28T09:01:48.580Z,11.00
2018-01-28T09:04:16.909Z,8.33
2018-01-28T09:06:45.306Z,10.50
2018-01-28T09:09:13.669Z,8.00
2018-01-28T09:11:42.072Z,13.37
2018-01-28T09:14:10.759Z,9.17
2018-01-28T09:16:39.929Z,9.87
2018-01-28T09:19:08.318Z,11.13
2018-01-28T09:21:36.774Z,9.43
2018-01-28T09:24:05.059Z,7.63
2018-01-28T09:26:33.351Z,11.90
2018-01-28T09:29:01.697Z,7.13
2018-01-28T09:31:29.985Z,7.70
2018-01-28T09:33:58.374Z,10.27
2018-01-28T09:36:26.812Z,11.13
2018-01-28T09:38:55.131Z,5.83
2018-01-28T09:41:23.516Z,12.37
2018-01-28T09:43:52.390Z,8.73
2018-01-28T09:46:20.710Z,13.40
2018-01-28T09:48:49.043Z,9.93
2018-01-28T09:51:17.689Z,10.43
2018-01-28T09:53:46.037Z,5.30
2018-01-28T09:56:14.353Z,5.47
2018-01-28T09:58:43.438Z,4.93
2018-01-28T10:01:11.723Z,6.37
2018-01-28T10:03:40.046Z,7.73
2018-01-28T10:06:09.189Z,4.47
2018-01-28T10:08:37.514Z,9.60
2018-01-28T10:11:06.617Z,14.83
2018-01-28T10:13:35.008Z,3.90
2018-01-28T10:16:03.319Z,4.80
2018-01-28T10:18:32.399Z,5.30
2018-01-28T10:21:00.734Z,5.17
2018-01-28T10:23:29.834Z,5.27
2018-01-28T10:25:59.214Z,5.40
2018-01-28T10:28:27.521Z,3.77
2018-01-28T10:30:55.814Z,4.70
2018-01-28T10:33:24.113Z,5.00
2018-01-28T10:35:52.452Z,8.10
2018-01-28T10:38:20.753Z,3.80
2018-01-28T10:40:49.058Z,4.53
2018-01-28T10:43:17.375Z,5.03
2018-01-28T10:45:45.698Z,3.53
2018-01-28T10:48:13.994Z,3.83
2018-01-28T10:50:42.309Z,6.47
2018-01-28T10:53:10.634Z,5.57
2018-01-28T10:55:39.011Z,5.50
2018-01-28T10:58:07.458Z,4.53
2018-01-28T11:00:35.763Z,6.03
2018-01-28T11:03:04.064Z,6.20
2018-01-28T11:05:32.366Z,5.20
2018-01-28T11:08:00.710Z,7.27
2018-01-28T11:10:29.553Z,6.00
2018-01-28T11:12:57.910Z,5.80
2018-01-28T11:15:26.252Z,4.13
2018-01-28T11:17:54.633Z,5.70
2018-01-28T11:20:22.954Z,14.07
2018-01-28T11:22:52.087Z,4.97
2018-01-28T11:25:20.420Z,7.13
2018-01-28T11:27:48.724Z,8.53
2018-01-28T11:30:17.070Z,5.23
2018-01-28T11:32:45.768Z,4.30
2018-01-28T11:35:14.089Z,4.90
2018-01-28T11:37:42.431Z,6.17
2018-01-28T11:40:11.115Z,3.40
2018-01-28T11:42:40.187Z,4.80
2018-01-28T11:45:09.211Z,4.37
2018-01-28T11:47:37.933Z,5.77
2018-01-28T11:50:07.360Z,3.90
2018-01-28T11:52:36.122Z,4.10
2018-01-28T11:55:04.511Z,5.20
2018-01-28T11:57:32.808Z,5.83
2018-01-28T12:00:01.537Z,6.00
2018-01-28T12:02:30.598Z,12.73
2018-01-28T12:04:58.900Z,6.53
2018-01-28T12:07:28.135Z,5.03
2018-01-28T12:09:56.581Z,5.10
2018-01-28T12:12:24.914Z,7.67
2018-01-28T12:14:53.232Z,11.43
2018-01-28T12:17:21.536Z,6.83
2018-01-28T12:19:49.850Z,4.37
2018-01-28T12:22:18.242Z,15.20
2018-01-28T12:24:46.575Z,7.67
2018-01-28T12:27:14.884Z,8.60
2018-01-28T12:29:43.187Z,6.73
2018-01-28T12:32:11.572Z,5.30
2018-01-28T12:34:39.930Z,6.60
2018-01-28T12:37:09.012Z,7.10
2018-01-28T12:39:37.414Z,7.07
2018-01-28T12:42:05.736Z,6.10
2018-01-28T12:44:34.830Z,8.20
2018-01-28T12:47:03.919Z,8.33
2018-01-28T12:49:32.265Z,10.30
2018-01-28T12:52:00.597Z,10.30
2018-01-28T12:54:29.173Z,6.80
2018-01-28T12:56:57.527Z,6.53
2018-01-28T12:59:25.962Z,8.20
2018-01-28T13:01:54.320Z,8.07
2018-01-28T13:04:22.678Z,13.00
2018-01-28T13:06:51.088Z,9.33
2018-01-28T13:09:20.245Z,11.17
2018-01-28T13:11:48.676Z,7.10
2018-01-28T13:14:17.881Z,10.53
2018-01-28T13:16:46.197Z,9.13
2018-01-28T13:19:15.241Z,7.97
2018-01-28T13:21:43.581Z,8.83
2018-01-28T13:24:12.141Z,9.43
2018-01-28T13:26:40.474Z,15.07
2018-01-28T13:29:09.549Z,9.43
2018-01-28T13:31:37.879Z,9.90
2018-01-28T13:34:06.943Z,9.30
2018-01-28T13:36:35.254Z,10.10
2018-01-28T13:39:03.564Z,12.73
2018-01-28T13:41:31.939Z,8.33
2018-01-28T13:44:01.183Z,10.97
2018-01-28T13:46:29.584Z,9.70
2018-01-28T13:48:57.956Z,9.93
2018-01-28T13:51:27.116Z,11.30
2018-01-28T13:53:55.538Z,19.53
2018-01-28T13:56:23.910Z,11.90
2018-01-28T13:58:52.312Z,12.40
2018-01-28T14:01:21.050Z,7.87
2018-01-28T14:03:49.609Z,10.10
2018-01-28T14:06:18.160Z,10.73
2018-01-28T14:08:47.119Z,12.53
2018-01-28T14:11:15.698Z,9.40
2018-01-28T14:13:44.093Z,11.50
2018-01-28T14:16:13.453Z,10.80
2018-01-28T14:18:41.906Z,10.33
2018-01-28T14:21:10.254Z,14.33
2018-01-28T14:23:38.691Z,9.50
2018-01-28T14:26:07.046Z,10.53
2018-01-28T14:28:35.499Z,11.60
2018-01-28T14:31:04.673Z,11.13
2018-01-28T14:33:33.014Z,7.70
2018-01-28T14:36:01.441Z,13.80
2018-01-28T14:38:29.809Z,8.77
2018-01-28T14:40:58.558Z,8.67
2018-01-28T14:43:26.890Z,9.47
2018-01-28T14:45:56.013Z,6.70
2018-01-28T14:48:24.354Z,10.93
2018-01-28T14:50:52.722Z,7.47
2018-01-28T14:53:21.394Z,12.37
2018-01-28T14:55:49.722Z,15.50
2018-01-28T14:58:18.302Z,14.43
2018-01-28T15:00:46.629Z,10.53
2018-01-28T15:03:15.004Z,10.50
2018-01-28T15:05:43.605Z,10.47
2018-01-28T15:08:11.938Z,7.77
2018-01-28T15:10:41.081Z,9.37
2018-01-28T15:13:09.434Z,10.17
2018-01-28T15:15:37.803Z,7.27
2018-01-28T15:18:06.272Z,8.23
2018-01-28T15:20:34.631Z,8.47
2018-01-28T15:23:02.951Z,9.97
2018-01-28T15:25:31.329Z,7.50
2018-01-28T15:28:00.402Z,6.63
2018-01-28T15:30:29.835Z,7.80
2018-01-28T15:32:58.172Z,10.30
2018-01-28T15:35:26.533Z,11.40
2018-01-28T15:37:54.967Z,12.40
2018-01-28T15:40:23.295Z,10.03
2018-01-28T15:42:51.948Z,9.67
2018-01-28T15:45:20.254Z,7.17
2018-01-28T15:47:48.658Z,8.03
2018-01-28T15:50:17.746Z,13.90
2018-01-28T15:52:46.113Z,9.90
2018-01-28T15:55:14.488Z,6.63
2018-01-28T15:57:42.874Z,8.20
2018-01-28T16:00:11.225Z,11.23
2018-01-28T16:02:39.566Z,9.17
2018-01-28T16:05:07.934Z,10.67
2018-01-28T16:07:36.666Z,11.57
2018-01-28T16:10:05.131Z,9.07
2018-01-28T16:12:33.466Z,7.87
2018-01-28T16:15:01.811Z,12.13
2018-01-28T16:17:30.144Z,12.23
2018-01-28T16:19:58.801Z,17.50
2018-01-28T16:22:27.921Z,15.47
2018-01-28T16:24:56.255Z,13.77
2018-01-28T16:27:24.614Z,14.13
2018-01-28T16:29:52.927Z,13.47
2018-01-28T16:32:21.325Z,9.27
2018-01-28T16:34:49.661Z,11.50
2018-01-28T16:37:18.766Z,18.57
2018-01-28T16:39:47.875Z,11.03
2018-01-28T16:42:17.067Z,17.63
2018-01-28T16:44:45.635Z,19.20
2018-01-28T16:47:14.000Z,15.70
2018-01-28T16:49:42.328Z,13.40
2018-01-28T16:52:10.674Z,20.23
2018-01-28T16:54:39.049Z,17.40
2018-01-28T16:57:07.750Z,22.83
2018-01-28T16:59:36.145Z,15.87
2018-01-28T17:02:04.510Z,31.37
2018-01-28T17:04:32.838Z,27.17
2018-01-28T17:07:01.186Z,16.80
2018-01-28T17:09:29.736Z,25.13
2018-01-28T17:11:58.103Z,22.23
2018-01-28T17:14:27.218Z,26.50
2018-01-28T17:16:55.589Z,15.30
2018-01-28T17:19:24.703Z,22.60
2018-01-28T17:21:54.186Z,21.70
2018-01-28T17:24:22.526Z,19.33
2018-01-28T17:26:50.886Z,23.33
2018-01-28T17:29:19.223Z,18.97
2018-01-28T17:31:47.568Z,18.10
2018-01-28T17:34:16.182Z,18.50
2018-01-28T17:36:45.275Z,23.87
2018-01-28T17:39:13.638Z,20.43
2018-01-28T17:41:42.091Z,21.33
2018-01-28T17:44:11.418Z,22.40
2018-01-28T17:46:40.072Z,22.20
2018-01-28T17:49:08.456Z,18.30
2018-01-28T17:51:36.766Z,22.57
2018-01-28T17:54:05.891Z,23.60
2018-01-28T17:56:35.106Z,17.93
2018-01-28T17:59:03.531Z,18.90
2018-01-28T18:01:31.875Z,16.13
2018-01-28T18:04:01.037Z,15.20
2018-01-28T18:06:29.354Z,20.20
2018-01-28T18:08:57.698Z,16.23
2018-01-28T18:11:26.336Z,18.30
2018-01-28T18:13:54.752Z,10.77
2018-01-28T18:16:23.729Z,13.93
2018-01-28T18:18:52.092Z,15.10
2018-01-28T18:21:20.454Z,9.83
2018-01-28T18:23:49.578Z,14.20
2018-01-28T18:26:17.943Z,11.43
2018-01-28T18:28:46.385Z,11.80
2018-01-28T18:31:14.730Z,18.37
2018-01-28T18:33:43.823Z,14.47
2018-01-28T18:36:12.158Z,11.93
2018-01-28T18:38:40.488Z,10.37
2018-01-28T18:41:08.986Z,14.83
2018-01-28T18:43:37.350Z,11.17
2018-01-28T18:46:06.527Z,10.83
2018-01-28T18:48:35.626Z,11.30
2018-01-28T18:51:07.879Z,14.83
2018-01-28T18:53:36.279Z,13.60
2018-01-28T18:56:04.623Z,10.17
2018-01-28T18:58:32.958Z,8.40
2018-01-28T19:01:01.294Z,9.03
2018-01-28T19:03:29.637Z,10.00
2018-01-28T19:05:58.043Z,10.43
2018-01-28T19:08:26.469Z,7.40
2018-01-28T19:10:54.826Z,11.70
2018-01-28T19:13:23.158Z,9.77
2018-01-28T19:15:51.498Z,8.20
2018-01-28T19:18:20.283Z,10.80
2018-01-28T19:20:48.609Z,10.43
2018-01-28T19:23:16.963Z,9.27
2018-01-28T19:25:45.444Z,10.70
2018-01-28T19:28:14.545Z,10.43
2018-01-28T19:30:42.938Z,12.40
2018-01-28T19:33:11.379Z,13.70
2018-01-28T19:35:39.810Z,11.07
2018-01-28T19:38:08.158Z,8.47
2018-01-28T19:40:36.648Z,9.17
2018-01-28T19:43:05.070Z,11.40
2018-01-28T19:45:34.318Z,7.80
2018-01-28T19:48:02.783Z,9.53
2018-01-28T19:50:31.145Z,8.60
2018-01-28T19:52:59.447Z,12.03
2018-01-28T19:55:27.953Z,9.23
2018-01-28T19:57:57.154Z,9.43
2018-01-28T20:00:25.598Z,11.80
2018-01-28T20:02:53.950Z,10.73
2018-01-28T20:05:23.055Z,14.90
2018-01-28T20:07:52.208Z,10.37
2018-01-28T20:10:20.537Z,7.57
2018-01-28T20:12:48.910Z,9.50
2018-01-28T20:15:17.249Z,9.03
2018-01-28T20:17:45.653Z,10.40
2018-01-28T20:20:14.370Z,10.40
2018-01-28T20:22:42.733Z,10.27
2018-01-28T20:25:11.839Z,10.23
2018-01-28T20:27:41.087Z,15.80
2018-01-28T20:30:09.508Z,18.83
2018-01-28T20:32:38.375Z,12.93
2018-01-28T20:35:07.726Z,12.33
2018-01-28T20:37:36.073Z,13.23
2018-01-28T20:40:04.490Z,12.33
2018-01-28T20:42:32.850Z,12.80
2018-01-28T20:45:01.360Z,11.77
2018-01-28T20:47:29.706Z,11.60
2018-01-28T20:49:58.039Z,18.10
2018-01-28T20:52:26.393Z,12.30
2018-01-28T20:54:55.499Z,14.00
2018-01-28T20:57:23.992Z,15.27
2018-01-28T20:59:52.359Z,16.57
2018-01-28T21:02:20.698Z,12.30
2018-01-28T21:04:49.806Z,13.80
2018-01-28T21:07:18.922Z,19.37
2018-01-28T21:09:47.251Z,10.10
2018-01-28T21:12:15.549Z,11.00
2018-01-28T21:14:44.119Z,12.03
2018-01-28T21:17:12.452Z,11.07
2018-01-28T21:19:40.800Z,13.57
2018-01-28T21:22:09.247Z,9.77
2018-01-28T21:24:37.577Z,12.20
2018-01-28T21:27:06.075Z,11.83
2018-01-28T21:29:34.403Z,14.83
2018-01-28T21:32:02.720Z,18.63
2018-01-28T21:34:31.818Z,19.20
2018-01-28T21:37:00.139Z,18.60
2018-01-28T21:39:28.621Z,14.07
2018-01-28T21:41:56.950Z,17.47
2018-01-28T21:44:25.282Z,16.00
2018-01-28T21:46:53.583Z,16.77
2018-01-28T21:49:22.830Z,17.00
2018-01-28T21:51:51.218Z,17.77
2018-01-28T21:54:19.521Z,18.10
2018-01-28T21:56:47.821Z,17.60
2018-01-28T21:59:16.250Z,18.57
2018-01-28T22:01:44.674Z,19.27
2018-01-28T22:04:13.937Z,18.60
2018-01-28T22:06:42.282Z,20.57
2018-01-28T22:09:10.590Z,20.93
2018-01-28T22:11:38.923Z,19.13
2018-01-28T22:14:07.274Z,22.93
2018-01-28T22:16:36.022Z,22.87
2018-01-28T22:19:04.379Z,21.70
2018-01-28T22:21:33.921Z,27.63
2018-01-28T22:24:02.297Z,20.90
2018-01-28T22:26:30.605Z,25.20
2018-01-28T22:28:58.914Z,16.93
2018-01-28T22:31:27.225Z,26.87
2018-01-28T22:33:55.947Z,23.37
2018-01-28T22:36:24.256Z,19.87
2018-01-28T22:38:52.547Z,21.70
2018-01-28T22:41:20.869Z,23.03
2018-01-28T22:43:49.171Z,22.10
2018-01-28T22:46:18.240Z,22.43
2018-01-28T22:48:46.544Z,23.10
2018-01-28T22:51:15.292Z,23.27
2018-01-28T22:53:43.634Z,21.13
2018-01-28T22:56:11.943Z,21.67
2018-01-28T22:58:40.310Z,21.70
2018-01-28T23:01:08.637Z,19.73
2018-01-28T23:03:37.834Z,20.93
2018-01-28T23:06:06.226Z,20.90
2018-01-28T23:08:34.544Z,20.57
2018-01-28T23:11:03.619Z,16.27
2018-01-28T23:13:32.681Z,21.13
2018-01-28T23:16:01.042Z,13.80
2018-01-28T23:18:30.134Z,17.80
2018-01-28T23:20:59.407Z,17.00
2018-01-28T23:23:27.721Z,15.73
2018-01-28T23:25:56.081Z,14.00
2018-01-28T23:28:24.381Z,17.07
2018-01-28T23:30:52.673Z,13.83
2018-01-28T23:33:21.033Z,16.23
2018-01-28T23:35:49.686Z,13.43
2018-01-28T23:38:17.982Z,18.40
2018-01-28T23:40:46.274Z,19.07
2018-01-28T23:43:14.577Z,15.13
2018-01-28T23:45:43.642Z,13.47
2018-01-28T23:48:12.142Z,12.60
2018-01-28T23:50:40.451Z,12.13
2018-01-28T23:53:08.786Z,12.77
2018-01-28T23:55:37.101Z,13.33
2018-01-28T23:58:05.418Z,13.00
